Airfield :
LOGIN :

Register | Disclaimer

   EN    FR    IT 

 










Legend :    VFR   Marginal VFR   IFR   Intensive IFR   Very Intensive IFR
Visi :
Ceiling :
>= 8 km
>= 3000ft
5 to 8 km
1000 to 3000 ft
1500m to 5 km
500 to 1000 ft
800 to 1500m
200 to 500 ft
< 800m
< 200 ft
Symbols :   Thunderstorms  Fog  Heavy snow  Heavy precipitations  Wind > 20 kt
SIGMETs :     Misc.  Thunderstorms  Icing  Turbulence  Mountain Waves  Volcanic Ashes






- Airport Elevation : 39 ft
- IATA code : CTA


LICC - Catania Fontanarossa

CURRENT METAR :
  • 090720Z VRB01KT CAVOK 29/20 Q1015

EXPIRED METARs :
  • 090650Z 22004KT CAVOK 27/19 Q1014
  • 090620Z 22004KT CAVOK 26/19 Q1014
  • 090550Z 23004KT CAVOK 24/19 Q1014
  • 090520Z 24005KT CAVOK 22/19 Q1014
  • 090450Z 24005KT CAVOK 22/19 Q1014

TAF TAF LICC
Valid from the 09 at 06:00 until the 10 at 06:00 UTC


090500Z 0906/1006 24007KT 9999 FEW025
BECMG 0909/0911 10012KT
TEMPO 0914/0920 TSRA
BECMG 0916/0918 VRB05KT



MET'MAP, your aeronautical weather chart ! - Copyright ORBIFLY December 2007 - Disclaimer

ORBIFLY MET'MAP TEAM :

Programming & Development : Alexandra Zaïnal
Original concept : Baudouin d'Aumeries
Technical & hardware support : Manuel Goepfert
Assistance : Marc-Olivier Méhu




SOURCES & CREDITS :

   NOAA